sensor_id;sensor_type;location;lat;lon;timestamp;P1;durP1;ratioP1;P2;durP2;ratioP2
31686;SDS011;18285;51.330;4.946;2022-11-20T00:01:45;4.07;;;3.50;;
31686;SDS011;18285;51.330;4.946;2022-11-20T00:25:55;4.03;;;3.10;;
31686;SDS011;18285;51.330;4.946;2022-11-20T00:50:06;3.08;;;2.75;;
31686;SDS011;18285;51.330;4.946;2022-11-20T01:14:18;4.25;;;3.20;;
31686;SDS011;18285;51.330;4.946;2022-11-20T02:02:41;3.28;;;2.75;;
31686;SDS011;18285;51.330;4.946;2022-11-20T02:27:05;2.50;;;2.30;;
31686;SDS011;18285;51.330;4.946;2022-11-20T02:51:21;2.28;;;2.08;;
31686;SDS011;18285;51.330;4.946;2022-11-20T03:15:32;2.80;;;2.33;;
31686;SDS011;18285;51.330;4.946;2022-11-20T03:39:43;2.28;;;2.08;;
31686;SDS011;18285;51.330;4.946;2022-11-20T04:03:54;2.55;;;2.35;;
31686;SDS011;18285;51.330;4.946;2022-11-20T04:28:05;3.35;;;2.20;;
31686;SDS011;18285;51.330;4.946;2022-11-20T04:52:16;2.53;;;1.83;;
31686;SDS011;18285;51.330;4.946;2022-11-20T05:16:27;2.70;;;2.33;;
31686;SDS011;18285;51.330;4.946;2022-11-20T05:40:37;2.60;;;2.40;;
31686;SDS011;18285;51.330;4.946;2022-11-20T06:04:48;2.72;;;2.30;;
31686;SDS011;18285;51.330;4.946;2022-11-20T06:28:59;2.35;;;2.15;;
31686;SDS011;18285;51.330;4.946;2022-11-20T06:53:09;3.28;;;2.50;;
31686;SDS011;18285;51.330;4.946;2022-11-20T07:17:20;2.60;;;2.40;;
31686;SDS011;18285;51.330;4.946;2022-11-20T07:41:31;2.45;;;2.25;;
31686;SDS011;18285;51.330;4.946;2022-11-20T08:05:41;3.80;;;3.13;;
31686;SDS011;18285;51.330;4.946;2022-11-20T08:29:52;4.85;;;3.58;;
31686;SDS011;18285;51.330;4.946;2022-11-20T08:54:03;9.32;;;3.75;;
31686;SDS011;18285;51.330;4.946;2022-11-20T09:18:14;5.88;;;4.20;;
31686;SDS011;18285;51.330;4.946;2022-11-20T09:42:39;9.88;;;5.32;;
31686;SDS011;18285;51.330;4.946;2022-11-20T10:31:13;7.78;;;5.10;;
31686;SDS011;18285;51.330;4.946;2022-11-20T11:19:59;12.18;;;7.10;;
31686;SDS011;18285;51.330;4.946;2022-11-20T12:08:57;13.97;;;9.13;;
31686;SDS011;18285;51.330;4.946;2022-11-20T13:22:08;11.43;;;6.63;;
31686;SDS011;18285;51.330;4.946;2022-11-20T14:04:35;10.25;;;7.43;;
31686;SDS011;18285;51.330;4.946;2022-11-20T14:28:48;8.63;;;6.03;;
31686;SDS011;18285;51.330;4.946;2022-11-20T14:53:01;8.77;;;4.72;;
31686;SDS011;18285;51.330;4.946;2022-11-20T15:17:12;5.23;;;3.83;;
31686;SDS011;18285;51.330;4.946;2022-11-20T15:41:23;4.97;;;3.35;;
31686;SDS011;18285;51.330;4.946;2022-11-20T16:05:33;3.63;;;2.80;;
31686;SDS011;18285;51.330;4.946;2022-11-20T16:29:44;7.28;;;3.00;;
31686;SDS011;18285;51.330;4.946;2022-11-20T16:53:55;10.68;;;3.80;;
31686;SDS011;18285;51.330;4.946;2022-11-20T17:18:06;13.13;;;4.97;;
31686;SDS011;18285;51.330;4.946;2022-11-20T17:42:17;14.07;;;6.65;;
31686;SDS011;18285;51.330;4.946;2022-11-20T18:06:36;28.90;;;8.18;;
31686;SDS011;18285;51.330;4.946;2022-11-20T18:30:47;22.60;;;8.02;;
31686;SDS011;18285;51.330;4.946;2022-11-20T18:54:58;18.02;;;6.30;;
31686;SDS011;18285;51.330;4.946;2022-11-20T19:19:10;19.60;;;6.40;;
31686;SDS011;18285;51.330;4.946;2022-11-20T19:43:21;19.38;;;7.82;;
31686;SDS011;18285;51.330;4.946;2022-11-20T20:07:32;16.42;;;8.70;;
31686;SDS011;18285;51.330;4.946;2022-11-20T20:31:43;13.37;;;7.00;;
31686;SDS011;18285;51.330;4.946;2022-11-20T20:56:00;7.50;;;4.83;;
31686;SDS011;18285;51.330;4.946;2022-11-20T21:20:11;9.07;;;5.28;;
31686;SDS011;18285;51.330;4.946;2022-11-20T21:44:40;7.75;;;4.35;;
31686;SDS011;18285;51.330;4.946;2022-11-20T22:08:51;9.20;;;4.15;;
31686;SDS011;18285;51.330;4.946;2022-11-20T22:33:02;6.82;;;3.83;;
31686;SDS011;18285;51.330;4.946;2022-11-20T22:57:13;7.28;;;3.40;;
31686;SDS011;18285;51.330;4.946;2022-11-20T23:21:23;5.25;;;3.13;;
31686;SDS011;18285;51.330;4.946;2022-11-20T23:45:36;4.35;;;2.83;;
